Yellowstone Regional Airport
KCOD : now visible

Airfield :











YOU CAN JOIN US ON...

 
LOGIN :

Register | Disclaimer

   EN    FR    IT 

 









Legend :    VFR   Marginal VFR   IFR   Intensive IFR   Very Intensive IFR
Visi :
Ceiling :
>= 8 km
>= 3000ft
5 to 8 km
1000 to 3000 ft
1500m to 5 km
500 to 1000 ft
800 to 1500m
200 to 500 ft
< 800m
< 200 ft
Symbols :   Thunderstorms  Fog  Heavy snow  Heavy precipitations  Wind > 20 kt






- Airport Elevation : 5102 ft


KCOD - Yellowstone Regional

CURRENT METAR :
  • 070856Z AUTO 05003KT 8SM OVC008 07/05 A3046 RMK AO2 SLP305 T00670050 53000

EXPIRED METARs :
  • 070756Z AUTO 03004KT 9SM OVC008 07/06 A3046 RMK AO2 SLP307 T00670056
  • 070708Z AUTO 02004KT 7SM BKN008 OVC075 06/06 A3046 RMK AO2
  • 070656Z AUTO 02005KT 7SM BKN010 OVC075 06/06 A3046 RMK AO2 CIG 007V010 SLP309 T00610056 401330050

TAF KCOD
Valid from the 07 at 06:00 until the 08 at 06:00 UTC


070520Z 0706/0806 36005KT P6SM BKN025
FM071000 VRB04KT 4SM BR BKN015
TEMPO 0710/0714 1SM BR OVC005
FM071600 05007KT P6SM SCT120
FM080300 VRB04KT P6SM SKC
KZLC FIR / North America



MET'MAP, your aeronautical weather chart ! - Copyright ORBIFLY December 2007 - Disclaimer

ORBIFLY MET'MAP TEAM :

Programming & Development : Alexandra Zaïnal
Original concept : Baudouin d'Aumeries
Technical & hardware support : Manuel Goepfert
Assistance : Marc-Olivier Méhu




SOURCES & CREDITS :

   NOAA       Earth
Advisory